Time;durP1;ratioP1;P1;durP2;ratioP2;P2;SDS_P1;SDS_P2;PMS_P1;PMS_P2;Temp;Humidity;BMP_temperature;BMP_pressure;BME280_temperature;BME280_humidity;BME280_pressure;Samples;Min_cycle;Max_cycle;Signal;HPM_P1;HPM_P2
2022/10/25 00:01:34;;;;;;;;;;;17.10;99.90;;;;;;5052478;28;19909;-25
2022/10/25 00:03:59;;;;;;;;;;;17.20;99.90;;;;;;5053443;28;20416;-25
2022/10/25 00:06:25;;;;;;;;;;;17.10;99.90;;;;;;5053874;28;19952;-25
2022/10/25 00:08:50;;;;;;;;;;;17.10;99.90;;;;;;5054005;28;19955;-25
2022/10/25 00:11:18;;;;;;;;;;;17.10;99.90;;;;;;5052469;28;19999;-25
2022/10/25 00:13:44;;;;;;;;;;;17.10;99.90;;;;;;5053450;28;19908;-25
2022/10/25 00:16:14;;;;;;;;;;;17.10;99.90;;;;;;5053672;28;19966;-25
2022/10/25 00:18:39;;;;;;;;;;;17.10;99.90;;;;;;5054095;28;19909;-25
2022/10/25 00:21:05;;;;;;;;;;;17.10;99.90;;;;;;5053515;28;20247;-25
2022/10/25 00:23:30;;;;;;;;;;;17.10;99.90;;;;;;5053128;28;19924;-25
2022/10/25 00:25:59;;;;;;;;;;;17.10;99.90;;;;;;5053697;28;20431;-25
2022/10/25 00:28:25;;;;;;;;;;;17.10;99.90;;;;;;5053428;28;20336;-25
2022/10/25 00:30:57;;;;;;;;;;;17.10;99.90;;;;;;5053202;28;19909;-25
2022/10/25 00:33:23;;;;;;;;;;;17.10;99.90;;;;;;5052932;28;20134;-25
2022/10/25 00:35:48;;;;;;;;;;;17.10;99.90;;;;;;5053306;28;20275;-25
2022/10/25 00:38:14;;;;;;;;;;;17.10;99.90;;;;;;5051857;28;19912;-25
2022/10/25 00:40:39;;;;;;;;;;;17.10;99.90;;;;;;5053367;28;19915;-25
2022/10/25 00:43:07;;;;;;;;;;;17.10;99.90;;;;;;5052779;28;19916;-25
2022/10/25 00:45:32;;;;;;;;;;;17.10;99.90;;;;;;5053124;28;19916;-26
2022/10/25 00:48:05;;;;;;;;;;;17.10;99.90;;;;;;5053169;28;19909;-25
2022/10/25 00:50:38;;;;;;;;;;;17.10;99.90;;;;;;5053313;28;19952;-26
2022/10/25 00:53:09;;;;;;;;;;;17.10;99.90;;;;;;5052317;28;19955;-26
2022/10/25 00:55:36;;;;;;;;;;;17.10;99.90;;;;;;5052829;28;20324;-25
2022/10/25 00:58:07;;;;;;;;;;;17.10;99.90;;;;;;5052968;28;19995;-25
2022/10/25 01:00:33;;;;;;;;;;;17.10;99.90;;;;;;5053053;28;19915;-25
2022/10/25 01:02:58;;;;;;;;;;;17.10;99.90;;;;;;5052439;28;19908;-25
2022/10/25 01:05:24;;;;;;;;;;;17.10;99.90;;;;;;5052815;28;20386;-25
2022/10/25 01:07:50;;;;;;;;;;;17.00;99.90;;;;;;5053201;28;20313;-25
2022/10/25 01:10:16;;;;;;;;;;;17.00;99.90;;;;;;5052681;28;19913;-25
2022/10/25 01:12:41;;;;;;;;;;;17.10;99.90;;;;;;5052251;28;19920;-25
2022/10/25 01:15:10;;;;;;;;;;;17.00;99.90;;;;;;5052726;28;19916;-26
2022/10/25 01:17:58;;;;;;;;;;;17.00;99.90;;;;;;5052622;28;20328;-25
2022/10/25 01:20:27;;;;;;;;;;;17.00;99.90;;;;;;5052630;28;19915;-25
2022/10/25 01:22:59;;;;;;;;;;;17.00;99.90;;;;;;5051919;28;19935;-25
2022/10/25 01:25:28;;;;;;;;;;;17.00;99.90;;;;;;5052368;28;20374;-25
2022/10/25 01:28:14;;;;;;;;;;;17.00;99.90;;;;;;5052372;28;19915;-25
2022/10/25 01:30:42;;;;;;;;;;;17.00;99.90;;;;;;5052229;28;20338;-25
2022/10/25 01:33:08;;;;;;;;;;;17.00;99.90;;;;;;5089876;22;19934;-23
2022/10/25 01:35:33;;;;;;;;;;;17.00;99.90;;;;;;5072079;28;20294;-24
2022/10/25 01:37:59;;;;;;;;;;;17.00;99.90;;;;;;5072106;28;20350;-24
2022/10/25 01:40:28;;;;;;;;;;;17.00;99.90;;;;;;5072187;28;19909;-23
2022/10/25 01:42:59;;;;;;;;;;;17.00;99.90;;;;;;5071630;28;19908;-24
2022/10/25 01:45:29;;;;;;;;;;;17.00;99.90;;;;;;5072474;28;19908;-24
2022/10/25 01:48:15;;;;;;;;;;;17.00;99.90;;;;;;5071903;28;19909;-23
2022/10/25 01:50:43;;;;;;;;;;;17.00;99.90;;;;;;5072059;28;19978;-24
2022/10/25 01:53:09;;;;;;;;;;;17.00;99.90;;;;;;5071644;28;19951;-23
2022/10/25 01:55:42;;;;;;;;;;;16.90;99.90;;;;;;5071728;28;19959;-24
2022/10/25 01:58:18;;;;;;;;;;;16.90;99.90;;;;;;5071742;28;19908;-24
2022/10/25 02:01:04;;;;;;;;;;;16.90;99.90;;;;;;5071829;28;19991;-24
2022/10/25 02:03:46;;;;;;;;;;;16.90;99.90;;;;;;5069413;28;19913;-24
2022/10/25 02:06:28;;;;;;;;;;;16.90;99.90;;;;;;5071787;28;19909;-24
2022/10/25 02:09:16;;;;;;;;;;;16.90;99.90;;;;;;5071886;28;19912;-23
2022/10/25 02:11:41;;;;;;;;;;;16.90;99.90;;;;;;5071663;28;19908;-24
2022/10/25 02:14:07;;;;;;;;;;;16.90;99.90;;;;;;5071182;28;19908;-24
2022/10/25 02:16:32;;;;;;;;;;;16.90;99.90;;;;;;5071579;28;19912;-24
2022/10/25 02:19:00;;;;;;;;;;;16.90;99.90;;;;;;5071570;28;19908;-24
2022/10/25 02:21:27;;;;;;;;;;;16.90;99.90;;;;;;5071417;28;19908;-24
2022/10/25 02:23:53;;;;;;;;;;;16.90;99.90;;;;;;5069995;28;19915;-24
2022/10/25 02:26:20;;;;;;;;;;;16.90;99.90;;;;;;5071559;28;20016;-23
2022/10/25 02:28:46;;;;;;;;;;;16.90;99.90;;;;;;5071282;28;19963;-24
2022/10/25 02:31:14;;;;;;;;;;;16.90;99.90;;;;;;5071135;28;19908;-24
2022/10/25 02:33:39;;;;;;;;;;;16.90;99.90;;;;;;5070873;28;19916;-24
2022/10/25 02:36:06;;;;;;;;;;;16.90;99.90;;;;;;5071480;28;19936;-23
2022/10/25 02:38:32;;;;;;;;;;;16.90;99.90;;;;;;5074516;28;19979;-23
2022/10/25 02:40:59;;;;;;;;;;;16.90;99.90;;;;;;5071200;28;20369;-24
2022/10/25 02:46:27;;;;;;;;;;;16.90;99.90;;;;;;5071660;28;19924;-24
2022/10/25 02:48:52;;;;;;;;;;;16.90;99.90;;;;;;5070085;28;19908;-24
2022/10/25 02:51:18;;;;;;;;;;;16.90;99.90;;;;;;5071126;28;19913;-24
2022/10/25 02:53:43;;;;;;;;;;;16.90;99.90;;;;;;5070783;28;19944;-24
2022/10/25 02:56:10;;;;;;;;;;;16.90;99.90;;;;;;5071093;28;20364;-24
2022/10/25 02:58:37;;;;;;;;;;;16.90;99.90;;;;;;5071011;28;20247;-24
2022/10/25 03:01:03;;;;;;;;;;;16.90;99.90;;;;;;5071161;28;19913;-24
2022/10/25 03:03:29;;;;;;;;;;;16.80;99.90;;;;;;5070812;28;19924;-24
2022/10/25 03:05:55;;;;;;;;;;;16.90;99.90;;;;;;5071088;28;19908;-24
2022/10/25 03:08:20;;;;;;;;;;;16.80;99.90;;;;;;5071376;28;19908;-24
2022/10/25 03:10:46;;;;;;;;;;;16.80;99.90;;;;;;5071051;28;20281;-24
2022/10/25 03:13:12;;;;;;;;;;;16.80;99.90;;;;;;5070962;28;19912;-24
2022/10/25 03:15:37;;;;;;;;;;;16.80;99.90;;;;;;5073550;28;19924;-24
2022/10/25 03:18:03;;;;;;;;;;;16.80;99.90;;;;;;5074949;28;19912;-24
2022/10/25 03:20:28;;;;;;;;;;;16.80;99.90;;;;;;5074797;28;19919;-24
2022/10/25 03:22:54;;;;;;;;;;;16.80;99.90;;;;;;5074606;28;19909;-24
2022/10/25 03:25:19;;;;;;;;;;;16.80;99.90;;;;;;5074809;28;19920;-24
2022/10/25 03:27:45;;;;;;;;;;;16.80;99.90;;;;;;5074818;28;19909;-23
2022/10/25 03:30:13;;;;;;;;;;;16.80;99.90;;;;;;5074768;28;19955;-24
2022/10/25 03:32:39;;;;;;;;;;;16.80;99.90;;;;;;5074723;28;19978;-24
2022/10/25 03:35:05;;;;;;;;;;;16.80;99.90;;;;;;5074205;28;19909;-24
2022/10/25 03:37:30;;;;;;;;;;;16.80;99.90;;;;;;5074498;28;19909;-24
2022/10/25 03:39:57;;;;;;;;;;;16.80;99.90;;;;;;5074493;28;19915;-24
2022/10/25 03:42:23;;;;;;;;;;;16.80;99.90;;;;;;5074492;28;19908;-24
2022/10/25 03:44:49;;;;;;;;;;;16.80;99.90;;;;;;5074149;28;19912;-24
2022/10/25 03:47:14;;;;;;;;;;;16.80;99.90;;;;;;5074294;28;19912;-24
2022/10/25 03:49:40;;;;;;;;;;;16.70;99.90;;;;;;5074652;28;19912;-24
2022/10/25 03:52:06;;;;;;;;;;;16.80;99.90;;;;;;5074147;28;20358;-23
2022/10/25 03:54:32;;;;;;;;;;;16.70;99.90;;;;;;5073933;28;20054;-24
2022/10/25 03:56:57;;;;;;;;;;;16.70;99.90;;;;;;5074098;28;19983;-23
2022/10/25 03:59:23;;;;;;;;;;;16.80;99.90;;;;;;5074014;28;19966;-24
2022/10/25 04:01:48;;;;;;;;;;;16.80;99.90;;;;;;5073916;28;19912;-24
2022/10/25 04:04:14;;;;;;;;;;;16.70;99.90;;;;;;5074043;28;19919;-24
2022/10/25 04:06:39;;;;;;;;;;;16.80;99.90;;;;;;5074191;28;19912;-24
2022/10/25 04:09:06;;;;;;;;;;;16.70;99.90;;;;;;5072478;28;19935;-24
2022/10/25 04:11:32;;;;;;;;;;;16.70;99.90;;;;;;5074058;28;19912;-24
2022/10/25 04:13:57;;;;;;;;;;;16.70;99.90;;;;;;5073610;28;20000;-24
2022/10/25 04:16:24;;;;;;;;;;;16.70;99.90;;;;;;5074188;28;19913;-24
2022/10/25 04:18:52;;;;;;;;;;;16.70;99.90;;;;;;5073831;28;20342;-23
2022/10/25 04:21:18;;;;;;;;;;;16.70;99.90;;;;;;5073768;28;19995;-24
2022/10/25 04:23:44;;;;;;;;;;;16.70;99.90;;;;;;5073443;28;20288;-23
2022/10/25 04:26:09;;;;;;;;;;;16.70;99.90;;;;;;5072929;28;20365;-24
2022/10/25 04:28:35;;;;;;;;;;;16.70;99.90;;;;;;5073792;28;19940;-24
2022/10/25 04:31:01;;;;;;;;;;;16.70;99.90;;;;;;5073485;28;20367;-24
2022/10/25 04:33:27;;;;;;;;;;;16.70;99.90;;;;;;5073135;28;19916;-24
2022/10/25 04:35:55;;;;;;;;;;;16.70;99.90;;;;;;5073814;28;19919;-24
2022/10/25 04:38:21;;;;;;;;;;;16.70;99.90;;;;;;5073531;28;19909;-24
2022/10/25 04:40:54;;;;;;;;;;;16.70;99.90;;;;;;5073353;28;19920;-24
2022/10/25 04:43:19;;;;;;;;;;;16.70;99.90;;;;;;5072969;28;20179;-24
2022/10/25 04:45:45;;;;;;;;;;;16.60;99.90;;;;;;5073865;28;19915;-24
2022/10/25 04:48:10;;;;;;;;;;;16.60;99.90;;;;;;5073335;28;19909;-24
2022/10/25 04:50:36;;;;;;;;;;;16.60;99.90;;;;;;5073707;28;19916;-24
2022/10/25 04:53:02;;;;;;;;;;;16.70;99.90;;;;;;5072780;28;19916;-24
2022/10/25 04:55:28;;;;;;;;;;;16.60;99.90;;;;;;5072988;28;19923;-24
2022/10/25 04:57:54;;;;;;;;;;;16.60;99.90;;;;;;5073651;28;20285;-24
2022/10/25 05:00:19;;;;;;;;;;;16.70;99.90;;;;;;5073334;28;19912;-24
2022/10/25 05:02:44;;;;;;;;;;;16.60;99.90;;;;;;5072559;28;19909;-24
2022/10/25 05:05:10;;;;;;;;;;;16.60;99.90;;;;;;5073163;28;19909;-24
2022/10/25 05:07:36;;;;;;;;;;;16.60;99.90;;;;;;5073338;28;19959;-24
2022/10/25 05:10:01;;;;;;;;;;;16.60;99.90;;;;;;5072893;28;19908;-24
2022/10/25 05:12:27;;;;;;;;;;;16.60;99.90;;;;;;5072820;28;19951;-24
2022/10/25 05:14:52;;;;;;;;;;;16.60;99.90;;;;;;5072785;28;20284;-24
2022/10/25 05:17:18;;;;;;;;;;;16.60;99.90;;;;;;5072761;28;19920;-23
2022/10/25 05:19:43;;;;;;;;;;;16.60;99.90;;;;;;5072806;28;20377;-24
2022/10/25 05:22:09;;;;;;;;;;;16.60;99.90;;;;;;5072624;28;19939;-24
2022/10/25 05:24:34;;;;;;;;;;;16.60;99.90;;;;;;5071993;28;19917;-24
2022/10/25 05:27:00;;;;;;;;;;;16.60;99.90;;;;;;5072878;28;20057;-24
2022/10/25 05:29:25;;;;;;;;;;;16.60;99.90;;;;;;5072465;28;20300;-24
2022/10/25 05:31:51;;;;;;;;;;;16.60;99.90;;;;;;5072111;28;19931;-24
2022/10/25 05:34:17;;;;;;;;;;;16.60;99.90;;;;;;5072277;28;19912;-24
2022/10/25 05:36:42;;;;;;;;;;;16.60;99.90;;;;;;5072130;28;19920;-24
2022/10/25 05:39:08;;;;;;;;;;;16.60;99.90;;;;;;5070941;28;19915;-24
2022/10/25 05:41:33;;;;;;;;;;;16.60;99.90;;;;;;5072395;28;19963;-23
2022/10/25 05:43:59;;;;;;;;;;;16.60;99.90;;;;;;5071925;28;19912;-24
2022/10/25 05:46:24;;;;;;;;;;;16.60;99.90;;;;;;5072068;28;20385;-24
2022/10/25 05:48:50;;;;;;;;;;;16.60;99.90;;;;;;5072463;28;19915;-24
2022/10/25 05:51:21;;;;;;;;;;;16.50;99.90;;;;;;5071865;28;19958;-24
2022/10/25 05:53:50;;;;;;;;;;;16.60;99.90;;;;;;5071583;28;19912;-24
2022/10/25 05:56:17;;;;;;;;;;;16.50;99.90;;;;;;5072064;28;19923;-24
2022/10/25 05:58:43;;;;;;;;;;;16.50;99.90;;;;;;5071903;28;19908;-23
2022/10/25 06:01:09;;;;;;;;;;;16.50;99.90;;;;;;5072063;28;20236;-24
2022/10/25 06:03:35;;;;;;;;;;;16.50;99.90;;;;;;5073723;28;19955;-23
2022/10/25 06:06:01;;;;;;;;;;;16.50;99.90;;;;;;5079271;28;20273;-24
2022/10/25 06:08:27;;;;;;;;;;;16.50;99.90;;;;;;5075112;28;19909;-24
2022/10/25 06:10:52;;;;;;;;;;;16.50;99.90;;;;;;5071817;28;20400;-24
2022/10/25 06:13:18;;;;;;;;;;;16.50;99.90;;;;;;5071166;28;20455;-24
2022/10/25 06:15:43;;;;;;;;;;;16.50;99.90;;;;;;5071457;28;19912;-24
2022/10/25 06:18:09;;;;;;;;;;;16.50;99.90;;;;;;5071555;28;19913;-24
2022/10/25 06:20:34;;;;;;;;;;;16.50;99.90;;;;;;5071813;28;20336;-24
2022/10/25 06:23:00;;;;;;;;;;;16.50;99.90;;;;;;5071311;28;20014;-24
2022/10/25 06:25:25;;;;;;;;;;;16.50;99.90;;;;;;5071923;28;19912;-24
2022/10/25 06:27:51;;;;;;;;;;;16.50;99.90;;;;;;5072090;28;19909;-24
2022/10/25 06:30:16;;;;;;;;;;;16.40;99.90;;;;;;5072001;28;19999;-24
2022/10/25 06:32:42;;;;;;;;;;;16.40;99.90;;;;;;5071050;28;19920;-24
2022/10/25 06:35:07;;;;;;;;;;;16.40;99.90;;;;;;5072068;28;20345;-24
2022/10/25 06:37:33;;;;;;;;;;;16.40;99.90;;;;;;5071281;28;19920;-24
2022/10/25 06:39:58;;;;;;;;;;;16.40;99.90;;;;;;5071272;28;20444;-24
2022/10/25 06:42:24;;;;;;;;;;;16.40;99.90;;;;;;5071006;28;19912;-24
2022/10/25 06:44:49;;;;;;;;;;;16.40;99.90;;;;;;5071195;28;19920;-24
2022/10/25 06:47:15;;;;;;;;;;;16.40;99.90;;;;;;5071236;28;19909;-24
2022/10/25 06:49:40;;;;;;;;;;;16.40;99.90;;;;;;5070802;28;19999;-24
2022/10/25 06:52:06;;;;;;;;;;;16.40;99.90;;;;;;5070971;28;20270;-24
2022/10/25 06:54:31;;;;;;;;;;;16.40;99.90;;;;;;5070885;28;19915;-23
2022/10/25 06:56:57;;;;;;;;;;;16.50;99.90;;;;;;5071229;28;19916;-24
2022/10/25 06:59:23;;;;;;;;;;;16.50;99.90;;;;;;5069842;28;19916;-24
2022/10/25 07:01:48;;;;;;;;;;;16.50;99.90;;;;;;5070962;28;20010;-24
2022/10/25 07:04:14;;;;;;;;;;;16.50;99.90;;;;;;5070858;28;19934;-24
2022/10/25 07:06:40;;;;;;;;;;;16.50;99.90;;;;;;5071068;28;19917;-24
2022/10/25 07:09:08;;;;;;;;;;;16.50;99.90;;;;;;5070984;28;19912;-24
2022/10/25 07:11:34;;;;;;;;;;;16.50;99.90;;;;;;5071302;28;19935;-24
2022/10/25 07:14:00;;;;;;;;;;;16.50;99.90;;;;;;5070534;28;19920;-24
2022/10/25 07:16:26;;;;;;;;;;;16.50;99.90;;;;;;5070969;28;19939;-23
2022/10/25 07:18:56;;;;;;;;;;;16.50;99.90;;;;;;5070719;28;19970;-24
2022/10/25 07:21:24;;;;;;;;;;;16.60;99.90;;;;;;5070598;28;20362;-24
2022/10/25 07:23:50;;;;;;;;;;;16.60;99.90;;;;;;5068947;28;19948;-24
2022/10/25 07:26:21;;;;;;;;;;;16.60;99.90;;;;;;5070926;28;19951;-24
2022/10/25 07:28:47;;;;;;;;;;;16.60;99.90;;;;;;5069495;28;19951;-24
2022/10/25 07:31:14;;;;;;;;;;;16.60;99.90;;;;;;5070506;28;19908;-24
2022/10/25 07:33:40;;;;;;;;;;;16.70;99.90;;;;;;5070597;28;19923;-24
2022/10/25 07:36:06;;;;;;;;;;;16.70;99.90;;;;;;5070662;28;20335;-24
2022/10/25 07:38:31;;;;;;;;;;;16.80;99.90;;;;;;5070566;28;19931;-24
2022/10/25 07:40:57;;;;;;;;;;;16.80;99.90;;;;;;5070620;28;19912;-24
2022/10/25 07:43:24;;;;;;;;;;;16.80;99.90;;;;;;5070226;28;19966;-23
2022/10/25 07:45:50;;;;;;;;;;;16.90;99.90;;;;;;5070522;28;19912;-23
2022/10/25 07:48:15;;;;;;;;;;;16.90;99.90;;;;;;5070462;28;19908;-24
2022/10/25 07:50:41;;;;;;;;;;;16.80;99.90;;;;;;5070646;28;19908;-23
2022/10/25 07:53:06;;;;;;;;;;;16.90;99.90;;;;;;5070229;28;19908;-23
2022/10/25 07:55:31;;;;;;;;;;;16.90;99.90;;;;;;5070368;28;20274;-24
2022/10/25 07:58:00;;;;;;;;;;;16.90;99.90;;;;;;5070474;28;20199;-24
2022/10/25 08:00:26;;;;;;;;;;;16.90;99.90;;;;;;5070449;28;19909;-24
2022/10/25 08:02:51;;;;;;;;;;;17.00;99.90;;;;;;5072596;28;19934;-24
2022/10/25 08:05:17;;;;;;;;;;;17.00;99.90;;;;;;5073966;28;19913;-24
2022/10/25 08:07:42;;;;;;;;;;;17.00;99.90;;;;;;5073945;28;19979;-24
2022/10/25 08:10:08;;;;;;;;;;;17.00;99.90;;;;;;5073919;28;20480;-24
2022/10/25 08:12:34;;;;;;;;;;;17.10;99.90;;;;;;5073271;28;19913;-24
2022/10/25 08:14:59;;;;;;;;;;;17.10;99.90;;;;;;5073629;28;19958;-24
2022/10/25 08:17:25;;;;;;;;;;;17.10;99.90;;;;;;5073488;28;19913;-24
2022/10/25 08:19:50;;;;;;;;;;;17.10;99.90;;;;;;5073633;28;19908;-24
2022/10/25 08:22:16;;;;;;;;;;;17.20;99.90;;;;;;5072056;28;19908;-23
2022/10/25 08:24:41;;;;;;;;;;;17.10;99.90;;;;;;5073102;28;19909;-24
2022/10/25 08:27:07;;;;;;;;;;;17.20;99.90;;;;;;5073516;28;19915;-24
2022/10/25 08:29:32;;;;;;;;;;;17.20;99.90;;;;;;5073389;28;20392;-24
2022/10/25 08:31:58;;;;;;;;;;;17.20;99.90;;;;;;5073131;28;19924;-24
2022/10/25 08:34:24;;;;;;;;;;;17.20;99.90;;;;;;5072910;28;19913;-24
2022/10/25 08:36:50;;;;;;;;;;;17.30;99.90;;;;;;5073283;28;20002;-24
2022/10/25 08:39:18;;;;;;;;;;;17.30;99.90;;;;;;5073173;28;19912;-24
2022/10/25 08:41:49;;;;;;;;;;;17.30;99.90;;;;;;5073158;28;19915;-23
2022/10/25 08:44:35;;;;;;;;;;;17.40;99.90;;;;;;5072864;28;19908;-24
2022/10/25 08:47:01;;;;;;;;;;;17.40;99.90;;;;;;5072621;28;19918;-23
2022/10/25 08:49:26;;;;;;;;;;;17.40;99.90;;;;;;5071657;28;19908;-24
2022/10/25 08:51:53;;;;;;;;;;;17.40;99.90;;;;;;5072991;28;19915;-24
2022/10/25 08:54:27;;;;;;;;;;;17.40;99.90;;;;;;5072646;28;19948;-24
2022/10/25 08:57:11;;;;;;;;;;;17.50;99.90;;;;;;5072857;28;19913;-24
2022/10/25 08:59:39;;;;;;;;;;;17.40;99.90;;;;;;5073169;28;19913;-23
2022/10/25 09:02:12;;;;;;;;;;;17.50;99.90;;;;;;5072684;28;19927;-24
2022/10/25 09:04:37;;;;;;;;;;;17.50;99.90;;;;;;5071567;28;19963;-24
2022/10/25 09:07:22;;;;;;;;;;;17.50;99.90;;;;;;5073038;28;19993;-24
2022/10/25 09:09:47;;;;;;;;;;;17.50;99.90;;;;;;5072530;28;20384;-24
2022/10/25 09:12:13;;;;;;;;;;;17.50;99.90;;;;;;5072183;28;20016;-23
2022/10/25 09:14:48;;;;;;;;;;;17.50;99.90;;;;;;5072237;28;19934;-24
2022/10/25 09:17:16;;;;;;;;;;;17.50;99.90;;;;;;5072384;28;19946;-23
2022/10/25 09:19:52;;;;;;;;;;;17.50;99.90;;;;;;5072535;28;19922;-24
2022/10/25 09:22:18;;;;;;;;;;;17.60;99.90;;;;;;5072374;28;19943;-24
2022/10/25 09:24:51;;;;;;;;;;;17.50;99.90;;;;;;5071974;28;20442;-23
2022/10/25 09:27:36;;;;;;;;;;;17.60;99.90;;;;;;5072270;28;19908;-23
2022/10/25 09:30:02;;;;;;;;;;;17.60;99.90;;;;;;5071824;28;19940;-23
2022/10/25 09:32:35;;;;;;;;;;;17.60;99.90;;;;;;5074239;28;19946;-24
2022/10/25 09:35:01;;;;;;;;;;;17.60;99.90;;;;;;5076471;28;19954;-23
2022/10/25 09:37:30;;;;;;;;;;;17.60;99.90;;;;;;5072965;28;19913;-24
2022/10/25 09:39:58;;;;;;;;;;;17.60;99.90;;;;;;5072474;28;19908;-24
2022/10/25 09:42:26;;;;;;;;;;;17.60;99.90;;;;;;5071770;28;19919;-24
2022/10/25 09:44:58;;;;;;;;;;;17.60;99.90;;;;;;5071869;28;19962;-24
2022/10/25 09:47:31;;;;;;;;;;;17.70;99.90;;;;;;5072101;28;20322;-24
2022/10/25 09:49:59;;;;;;;;;;;17.60;99.90;;;;;;5071886;28;19916;-24
2022/10/25 09:52:24;;;;;;;;;;;17.70;99.90;;;;;;5071414;28;19948;-24
2022/10/25 09:55:01;;;;;;;;;;;17.60;99.90;;;;;;5071903;28;19946;-24
2022/10/25 09:57:27;;;;;;;;;;;17.70;99.90;;;;;;5071478;28;19966;-24
2022/10/25 09:59:53;;;;;;;;;;;17.70;99.90;;;;;;5071824;28;19913;-24
2022/10/25 10:02:22;;;;;;;;;;;17.70;99.90;;;;;;5071887;28;20288;-24
2022/10/25 10:04:48;;;;;;;;;;;17.70;99.90;;;;;;5071353;28;19995;-24
2022/10/25 10:07:17;;;;;;;;;;;17.70;99.90;;;;;;5071262;28;20340;-24
2022/10/25 10:09:43;;;;;;;;;;;17.70;99.90;;;;;;5071666;28;19908;-24
2022/10/25 10:12:19;;;;;;;;;;;17.70;99.90;;;;;;5071298;28;19916;-24
2022/10/25 10:14:49;;;;;;;;;;;17.80;99.90;;;;;;5071230;28;19908;-24
2022/10/25 10:17:16;;;;;;;;;;;17.80;99.90;;;;;;5071515;28;19913;-24
2022/10/25 10:19:42;;;;;;;;;;;17.80;99.90;;;;;;5071458;28;19908;-24
2022/10/25 10:22:13;;;;;;;;;;;17.80;99.90;;;;;;5071120;28;20289;-24
2022/10/25 10:24:39;;;;;;;;;;;17.80;99.90;;;;;;5070438;28;20051;-24
2022/10/25 10:27:25;;;;;;;;;;;17.80;99.90;;;;;;5071559;28;19934;-24
2022/10/25 10:29:56;;;;;;;;;;;17.80;99.90;;;;;;5070938;28;19931;-24
2022/10/25 10:32:30;;;;;;;;;;;17.80;99.90;;;;;;5071049;28;20021;-23
2022/10/25 10:34:56;;;;;;;;;;;17.80;99.90;;;;;;5071339;28;19953;-24
2022/10/25 10:37:23;;;;;;;;;;;17.80;99.90;;;;;;5071303;28;20356;-24
2022/10/25 10:39:51;;;;;;;;;;;17.80;99.90;;;;;;5071337;28;19915;-24
2022/10/25 10:42:19;;;;;;;;;;;17.80;99.90;;;;;;5071331;28;19939;-24
2022/10/25 10:45:01;;;;;;;;;;;17.80;99.90;;;;;;5071440;28;19912;-24
2022/10/25 10:47:30;;;;;;;;;;;17.80;99.90;;;;;;5071208;28;19908;-24
2022/10/25 10:49:56;;;;;;;;;;;17.80;99.90;;;;;;5071112;28;19955;-24
2022/10/25 10:52:35;;;;;;;;;;;17.90;99.90;;;;;;5070849;28;19939;-24
2022/10/25 10:55:01;;;;;;;;;;;17.90;99.90;;;;;;5071050;28;20025;-24
2022/10/25 10:57:31;;;;;;;;;;;17.90;99.90;;;;;;5070980;28;20392;-24
2022/10/25 10:59:57;;;;;;;;;;;17.90;99.90;;;;;;5070972;28;19943;-24
2022/10/25 11:02:35;;;;;;;;;;;18.00;99.90;;;;;;5070825;28;19990;-23
2022/10/25 11:05:00;;;;;;;;;;;18.00;99.90;;;;;;5071038;28;20288;-23
2022/10/25 11:07:28;;;;;;;;;;;18.00;99.90;;;;;;5071051;28;19908;-24
2022/10/25 11:10:13;;;;;;;;;;;18.00;99.90;;;;;;5071129;28;20290;-24
2022/10/25 11:12:39;;;;;;;;;;;18.10;99.90;;;;;;5070556;28;19912;-24
2022/10/25 11:15:11;;;;;;;;;;;18.10;99.90;;;;;;5070953;28;19916;-24
2022/10/25 11:17:42;;;;;;;;;;;18.10;99.90;;;;;;5070731;28;20269;-24
2022/10/25 11:20:26;;;;;;;;;;;18.10;99.90;;;;;;5071145;28;19908;-24
2022/10/25 11:22:54;;;;;;;;;;;18.10;99.90;;;;;;5070151;28;19908;-24
2022/10/25 11:25:20;;;;;;;;;;;18.10;99.90;;;;;;5070815;28;19917;-24
2022/10/25 11:27:57;;;;;;;;;;;18.10;99.90;;;;;;5070651;28;19920;-23
2022/10/25 11:30:24;;;;;;;;;;;18.20;99.90;;;;;;5070931;28;20006;-23
2022/10/25 11:32:49;;;;;;;;;;;18.10;99.90;;;;;;5070103;28;19920;-23
2022/10/25 11:35:32;;;;;;;;;;;18.10;99.90;;;;;;5071092;28;19909;-24
2022/10/25 11:38:01;;;;;;;;;;;18.20;99.90;;;;;;5074327;28;19944;-24
2022/10/25 11:40:35;;;;;;;;;;;18.20;99.90;;;;;;5074638;28;19912;-24
2022/10/25 11:43:03;;;;;;;;;;;18.20;99.90;;;;;;5073929;28;20370;-24
2022/10/25 11:45:47;;;;;;;;;;;18.30;99.90;;;;;;5074505;28;19962;-24
2022/10/25 11:48:31;;;;;;;;;;;18.30;99.90;;;;;;5074047;28;19909;-24
2022/10/25 11:51:05;;;;;;;;;;;18.30;99.90;;;;;;5072841;28;19916;-24
2022/10/25 11:53:34;;;;;;;;;;;18.30;99.90;;;;;;5073679;28;20080;-24
2022/10/25 11:56:03;;;;;;;;;;;18.30;99.90;;;;;;5074175;28;19920;-24
2022/10/25 11:58:29;;;;;;;;;;;18.30;99.90;;;;;;5074173;28;19913;-24
2022/10/25 12:01:03;;;;;;;;;;;18.30;99.90;;;;;;5074065;28;20351;-23
2022/10/25 12:03:54;;;;;;;;;;;18.30;99.90;;;;;;5074022;28;20403;-24
2022/10/25 12:06:25;;;;;;;;;;;18.30;99.90;;;;;;5069988;28;19912;-24
2022/10/25 12:08:57;;;;;;;;;;;18.30;99.90;;;;;;5073850;28;19991;-24
2022/10/25 12:11:25;;;;;;;;;;;18.30;99.90;;;;;;5074056;28;19955;-24
2022/10/25 12:13:53;;;;;;;;;;;18.30;99.90;;;;;;5071599;28;20011;-24
2022/10/25 12:16:20;;;;;;;;;;;18.30;99.90;;;;;;5073772;28;20369;-24
2022/10/25 12:18:47;;;;;;;;;;;18.40;99.90;;;;;;5073596;28;19916;-24
2022/10/25 12:21:26;;;;;;;;;;;18.30;99.90;;;;;;5073199;28;20289;-24
2022/10/25 12:23:53;;;;;;;;;;;18.30;99.90;;;;;;5072798;28;19915;-24
2022/10/25 12:26:29;;;;;;;;;;;18.40;99.90;;;;;;5072122;28;20187;-24
2022/10/25 12:28:56;;;;;;;;;;;18.40;99.90;;;;;;5073298;28;19954;-24
2022/10/25 12:31:25;;;;;;;;;;;18.40;99.90;;;;;;5073207;28;20439;-24
2022/10/25 12:33:54;;;;;;;;;;;18.50;99.90;;;;;;5072903;28;20003;-24
2022/10/25 12:36:39;;;;;;;;;;;18.50;99.90;;;;;;5073423;28;20003;-24
2022/10/25 12:39:11;;;;;;;;;;;18.50;99.90;;;;;;5072902;28;20343;-24
2022/10/25 12:41:39;;;;;;;;;;;18.50;99.90;;;;;;5073470;28;19909;-24
2022/10/25 12:44:04;;;;;;;;;;;18.60;99.90;;;;;;5072610;28;19908;-24
2022/10/25 12:46:33;;;;;;;;;;;18.60;99.90;;;;;;5073009;28;20478;-24
2022/10/25 12:49:07;;;;;;;;;;;18.60;99.90;;;;;;5072784;28;20483;-24
2022/10/25 12:51:32;;;;;;;;;;;18.60;99.90;;;;;;5073152;28;19908;-24
2022/10/25 12:54:11;;;;;;;;;;;18.60;99.90;;;;;;5072663;28;20376;-24
2022/10/25 12:56:57;;;;;;;;;;;18.60;99.90;;;;;;5074237;28;20331;-24
2022/10/25 12:59:32;;;;;;;;;;;18.60;99.90;;;;;;5072770;28;19908;-24
2022/10/25 13:02:17;;;;;;;;;;;18.60;99.90;;;;;;5071598;28;19999;-23
2022/10/25 13:04:46;;;;;;;;;;;18.50;99.90;;;;;;5072663;28;19909;-24
2022/10/25 13:07:12;;;;;;;;;;;18.50;99.90;;;;;;5073826;28;20400;-24
2022/10/25 13:09:38;;;;;;;;;;;18.50;99.90;;;;;;5073125;28;19978;-24
2022/10/25 13:12:05;;;;;;;;;;;18.50;99.90;;;;;;5071445;28;20280;-24
2022/10/25 13:14:32;;;;;;;;;;;18.50;99.90;;;;;;5072804;28;19920;-24
2022/10/25 13:17:16;;;;;;;;;;;18.60;99.90;;;;;;5072496;28;19920;-24
2022/10/25 13:19:42;;;;;;;;;;;18.60;99.90;;;;;;5072346;28;20357;-24
2022/10/25 13:22:26;;;;;;;;;;;18.60;99.90;;;;;;5071363;28;19951;-24
2022/10/25 13:24:52;;;;;;;;;;;18.60;99.90;;;;;;5072870;28;20317;-24
2022/10/25 13:27:20;;;;;;;;;;;18.60;99.90;;;;;;5072201;28;19913;-24
2022/10/25 13:30:04;;;;;;;;;;;18.60;99.90;;;;;;5072234;28;19963;-24
2022/10/25 13:32:34;;;;;;;;;;;18.60;99.90;;;;;;5072260;28;19916;-24
2022/10/25 13:35:02;;;;;;;;;;;18.60;99.90;;;;;;5070890;28;20007;-24
2022/10/25 13:37:30;;;;;;;;;;;18.60;99.90;;;;;;5072400;28;19960;-24
2022/10/25 13:40:25;;;;;;;;;;;18.60;99.90;;;;;;5070934;28;19952;-24
2022/10/25 13:43:02;;;;;;;;;;;18.60;99.90;;;;;;5057537;28;19919;-24
2022/10/25 13:45:27;;;;;;;;;;;18.60;99.90;;;;;;5072016;28;20441;-24
2022/10/25 13:47:54;;;;;;;;;;;18.60;99.90;;;;;;5072570;28;20346;-24
2022/10/25 13:50:28;;;;;;;;;;;18.70;99.90;;;;;;5073073;28;19916;-24
2022/10/25 13:52:53;;;;;;;;;;;18.70;99.90;;;;;;5071735;28;19916;-24
2022/10/25 13:55:20;;;;;;;;;;;18.70;99.90;;;;;;5071707;28;20281;-24
2022/10/25 13:57:48;;;;;;;;;;;18.70;99.90;;;;;;5071805;28;19909;-24
2022/10/25 14:00:17;;;;;;;;;;;18.70;99.90;;;;;;5071525;28;20039;-24
2022/10/25 14:03:01;;;;;;;;;;;18.70;99.90;;;;;;5071532;28;19956;-24
2022/10/25 14:05:46;;;;;;;;;;;18.70;99.90;;;;;;5072536;28;19908;-24
2022/10/25 14:08:18;;;;;;;;;;;18.70;99.90;;;;;;5060776;28;20381;-24
2022/10/25 14:10:46;;;;;;;;;;;18.70;99.90;;;;;;5071963;28;20292;-24
2022/10/25 14:13:27;;;;;;;;;;;18.70;99.90;;;;;;5069719;28;20357;-24
2022/10/25 14:15:57;;;;;;;;;;;18.70;99.90;;;;;;5071281;28;19919;-24
2022/10/25 14:18:22;;;;;;;;;;;18.70;99.90;;;;;;5071525;28;19912;-24
2022/10/25 14:20:51;;;;;;;;;;;18.70;99.90;;;;;;5071367;28;19909;-24
2022/10/25 14:23:20;;;;;;;;;;;18.70;99.90;;;;;;5071043;28;19931;-24
2022/10/25 14:25:52;;;;;;;;;;;18.70;99.90;;;;;;5071390;28;20003;-24
2022/10/25 14:28:23;;;;;;;;;;;18.70;99.90;;;;;;5071595;28;19966;-24